Time;durP1;ratioP1;P1;durP2;ratioP2;P2;SDS_P1;SDS_P2;PMS_P1;PMS_P2;Temp;Humidity;BMP_temperature;BMP_pressure;BME280_temperature;BME280_humidity;BME280_pressure;Samples;Min_cycle;Max_cycle;Signal;HPM_P1;HPM_P2
2021/12/20 00:01:28;;;;;;;1999.90;402.37;;;4.00;99.90;;;;;;5074317;28;20449;-76
2021/12/20 00:03:58;;;;;;;1999.90;999.90;;;4.00;99.90;;;;;;5074285;28;20487;-77
2021/12/20 00:06:26;;;;;;;1520.30;302.10;;;3.90;99.90;;;;;;5075472;28;20934;-77
2021/12/20 00:08:54;;;;;;;1828.77;318.03;;;3.90;99.90;;;;;;5087636;28;20452;-76
2021/12/20 00:11:22;;;;;;;1677.07;689.37;;;3.90;99.90;;;;;;5094394;28;20448;-76
2021/12/20 00:13:50;;;;;;;995.00;242.53;;;3.80;99.90;;;;;;5094093;28;20452;-76
2021/12/20 00:16:19;;;;;;;1999.90;999.90;;;3.90;99.90;;;;;;5094220;28;20550;-76
2021/12/20 00:18:47;;;;;;;1999.90;999.90;;;3.80;99.90;;;;;;5087862;28;20469;-76
2021/12/20 00:21:16;;;;;;;1999.90;999.90;;;3.80;99.90;;;;;;5073963;28;20510;-76
2021/12/20 00:23:45;;;;;;;1999.90;782.07;;;3.80;99.90;;;;;;5073906;28;20445;-76
2021/12/20 00:26:13;;;;;;;1999.90;999.90;;;3.70;99.90;;;;;;5073913;28;20449;-76
2021/12/20 00:28:43;;;;;;;1999.90;999.90;;;3.70;99.90;;;;;;5073784;28;20473;-76
2021/12/20 00:31:11;;;;;;;1999.90;999.90;;;3.70;99.90;;;;;;5073825;28;20621;-77
2021/12/20 00:33:39;;;;;;;737.87;232.77;;;3.60;99.90;;;;;;5077462;28;20903;-76
2021/12/20 00:36:09;;;;;;;1999.90;999.90;;;3.60;99.90;;;;;;5075240;28;20437;-76
2021/12/20 00:41:25;;;;;;;1999.90;333.53;;;3.60;99.90;;;;;;5075144;28;20446;-77
2021/12/20 00:43:53;;;;;;;1959.13;447.57;;;3.50;99.90;;;;;;5073556;28;20564;-77
2021/12/20 00:46:21;;;;;;;1716.03;256.20;;;3.50;99.90;;;;;;5073092;28;20449;-76
2021/12/20 00:48:49;;;;;;;1464.23;277.43;;;3.50;99.90;;;;;;5073673;28;20473;-77
2021/12/20 00:51:18;;;;;;;1999.90;757.50;;;3.50;99.90;;;;;;5075452;28;20536;-77
2021/12/20 00:53:47;;;;;;;1999.90;999.90;;;3.50;99.90;;;;;;5073348;28;20452;-76
2021/12/20 00:56:15;;;;;;;1999.90;999.90;;;3.40;99.90;;;;;;5073291;28;20958;-76
2021/12/20 00:58:43;;;;;;;1999.90;271.73;;;3.40;99.90;;;;;;5073035;28;20575;-76
2021/12/20 01:01:12;;;;;;;1999.90;301.97;;;3.40;99.90;;;;;;5073555;28;20452;-76
2021/12/20 01:03:40;;;;;;;1999.90;999.90;;;3.40;99.90;;;;;;5074390;28;20449;-77
2021/12/20 01:06:09;;;;;;;1374.03;272.20;;;3.30;99.90;;;;;;5073138;28;20445;-77
2021/12/20 01:08:40;;;;;;;1999.90;221.73;;;3.30;99.90;;;;;;5073046;28;20479;-77
2021/12/20 01:11:13;;;;;;;1815.63;179.93;;;3.30;99.90;;;;;;5073126;28;20437;-77
2021/12/20 01:13:42;;;;;;;1999.90;625.17;;;3.30;99.90;;;;;;5073093;28;20473;-76
2021/12/20 01:16:12;;;;;;;1999.90;283.57;;;3.20;99.90;;;;;;5074219;28;20837;-77
2021/12/20 01:18:41;;;;;;;1999.90;270.33;;;3.20;99.90;;;;;;5089581;28;20475;-76
2021/12/20 01:21:09;;;;;;;1999.90;254.03;;;3.20;99.90;;;;;;5072743;28;20503;-77
2021/12/20 01:23:38;;;;;;;1467.30;215.90;;;3.20;99.90;;;;;;5080803;28;20452;-77
2021/12/20 01:26:06;;;;;;;1996.40;272.70;;;3.20;99.90;;;;;;5089552;28;20453;-77
2021/12/20 01:28:36;;;;;;;1687.53;262.00;;;3.10;99.90;;;;;;5073850;28;20498;-77
2021/12/20 01:31:04;;;;;;;1999.90;283.53;;;3.20;99.90;;;;;;5074285;28;20425;-76
2021/12/20 01:33:32;;;;;;;1999.90;486.97;;;3.10;99.90;;;;;;5073814;28;20453;-76
2021/12/20 01:36:00;;;;;;;1952.40;399.10;;;3.10;99.90;;;;;;5072432;28;20451;-76
2021/12/20 01:38:29;;;;;;;1316.90;168.43;;;3.10;99.90;;;;;;5072299;28;21011;-76
2021/12/20 01:40:57;;;;;;;1999.90;650.73;;;3.00;99.90;;;;;;5072375;28;20468;-76
2021/12/20 01:43:25;;;;;;;1906.70;298.37;;;2.90;99.90;;;;;;5074233;28;20459;-77
2021/12/20 01:45:54;;;;;;;1632.70;236.10;;;2.90;99.90;;;;;;5072371;28;20455;-76
2021/12/20 01:48:24;;;;;;;1999.90;333.50;;;2.90;99.90;;;;;;5073499;28;20457;-77
2021/12/20 01:51:28;;;;;;;892.53;79.30;;;2.90;99.90;;;;;;5072362;28;20438;-76
2021/12/20 01:53:58;;;;;;;1683.87;376.67;;;2.80;99.90;;;;;;5072287;28;20452;-76
2021/12/20 01:56:27;;;;;;;773.37;67.67;;;2.80;99.90;;;;;;5074117;28;20498;-77
2021/12/20 01:59:02;;;;;;;1419.07;216.90;;;2.70;99.90;;;;;;5072619;28;20442;-77
2021/12/20 02:01:32;;;;;;;1051.27;135.90;;;2.70;99.90;;;;;;5081229;28;20957;-77
2021/12/20 02:04:04;;;;;;;1863.93;345.43;;;2.70;99.90;;;;;;5074277;28;20586;-77
2021/12/20 02:06:35;;;;;;;1999.77;309.33;;;2.60;99.90;;;;;;5073617;28;20420;-76
2021/12/20 02:09:07;;;;;;;1813.77;404.00;;;2.60;99.90;;;;;;5073660;28;20445;-77
2021/12/20 02:11:36;;;;;;;1972.07;368.60;;;2.50;99.90;;;;;;5073253;28;20546;-77
2021/12/20 02:14:05;;;;;;;923.80;121.67;;;2.50;99.90;;;;;;5073280;28;20935;-76
2021/12/20 02:16:36;;;;;;;1890.10;192.17;;;2.50;99.90;;;;;;5072429;28;20453;-77
2021/12/20 02:19:08;;;;;;;1459.03;236.10;;;2.50;99.90;;;;;;5072483;28;20422;-77
2021/12/20 02:21:38;;;;;;;745.70;130.93;;;2.40;99.90;;;;;;5071928;28;20476;-77
2021/12/20 02:24:06;;;;;;;1144.83;164.73;;;2.40;99.90;;;;;;5071844;28;20465;-77
2021/12/20 02:26:35;;;;;;;1909.87;190.97;;;2.40;99.90;;;;;;5071751;28;20445;-77
2021/12/20 02:29:07;;;;;;;1496.40;203.07;;;2.30;99.90;;;;;;5071842;28;20913;-77
2021/12/20 02:37:27;;;;;;;907.17;114.90;;;2.20;99.90;;;;;;5091849;28;20474;-77
2021/12/20 02:39:56;;;;;;;871.33;89.17;;;2.10;99.90;;;;;;5092411;28;20877;-77
2021/12/20 02:42:30;;;;;;;1415.20;155.37;;;2.10;99.90;;;;;;5091903;28;20485;-76
2021/12/20 02:45:10;;;;;;;948.53;121.50;;;2.10;99.90;;;;;;5091881;28;20567;-76
2021/12/20 02:47:40;;;;;;;927.13;98.83;;;2.00;99.90;;;;;;5093433;28;20460;-77
2021/12/20 02:50:09;;;;;;;761.00;111.27;;;2.00;99.90;;;;;;5073835;28;20478;-76
2021/12/20 02:52:39;;;;;;;1320.17;184.97;;;2.00;99.90;;;;;;5071628;28;20450;-76
2021/12/20 02:55:09;;;;;;;1214.80;216.43;;;1.90;99.90;;;;;;5072960;28;20461;-77
2021/12/20 02:57:38;;;;;;;810.33;117.13;;;1.90;99.90;;;;;;5071845;28;20569;-77
2021/12/20 03:00:08;;;;;;;1408.90;207.03;;;1.90;99.90;;;;;;5071488;28;20476;-77
2021/12/20 03:02:37;;;;;;;793.07;71.90;;;1.80;99.90;;;;;;5071434;28;20455;-76
2021/12/20 03:05:06;;;;;;;1009.60;164.53;;;1.80;99.90;;;;;;5071716;28;20944;-77
2021/12/20 03:07:42;;;;;;;853.40;85.63;;;1.80;99.90;;;;;;5073010;28;20460;-77
2021/12/20 03:10:12;;;;;;;655.33;103.20;;;1.70;99.90;;;;;;5077137;28;20539;-77
2021/12/20 03:12:40;;;;;;;727.77;88.20;;;1.70;99.90;;;;;;5076777;28;20536;-77
2021/12/20 03:15:13;;;;;;;864.40;128.00;;;1.70;99.90;;;;;;5087685;28;20457;-77
2021/12/20 03:17:41;;;;;;;663.23;99.90;;;1.60;99.90;;;;;;5095449;28;20474;-76
2021/12/20 03:20:09;;;;;;;971.37;108.60;;;1.60;99.90;;;;;;5095301;28;20989;-77
2021/12/20 03:22:38;;;;;;;1029.70;86.90;;;1.60;99.90;;;;;;5095344;28;20445;-77
2021/12/20 03:25:06;;;;;;;925.63;112.30;;;1.50;99.90;;;;;;5095323;28;20444;-77
2021/12/20 03:27:36;;;;;;;921.87;103.53;;;1.50;99.90;;;;;;5091401;28;20477;-77
2021/12/20 03:30:07;;;;;;;493.77;49.57;;;1.50;99.90;;;;;;5074859;28;20539;-76
2021/12/20 03:32:35;;;;;;;320.87;49.23;;;1.50;99.90;;;;;;5076177;28;20423;-77
2021/12/20 03:35:04;;;;;;;701.80;112.03;;;1.40;99.90;;;;;;5081109;28;20479;-76
2021/12/20 03:37:32;;;;;;;1235.83;162.30;;;1.40;99.90;;;;;;5091521;28;20476;-76
2021/12/20 03:40:01;;;;;;;1191.87;122.57;;;1.40;99.90;;;;;;5074682;28;20459;-77
2021/12/20 03:42:29;;;;;;;353.93;54.37;;;1.40;99.90;;;;;;5074662;28;20963;-77
2021/12/20 03:45:00;;;;;;;850.53;115.03;;;1.30;99.90;;;;;;5076766;28;20448;-78
2021/12/20 03:47:28;;;;;;;527.13;56.67;;;1.30;99.90;;;;;;5074706;28;20552;-77
2021/12/20 03:49:56;;;;;;;798.73;101.57;;;1.30;99.90;;;;;;5074587;28;20452;-77
2021/12/20 03:52:25;;;;;;;1034.93;122.03;;;1.30;99.90;;;;;;5076099;28;20472;-77
2021/12/20 03:54:53;;;;;;;649.53;77.90;;;1.20;99.90;;;;;;5074564;28;21046;-77
2021/12/20 03:57:21;;;;;;;554.30;36.70;;;1.20;99.90;;;;;;5075711;28;21139;-77
2021/12/20 03:59:53;;;;;;;951.23;126.10;;;1.20;99.90;;;;;;5094714;28;20444;-77
2021/12/20 04:02:24;;;;;;;1665.40;156.57;;;1.20;99.90;;;;;;5095815;28;20464;-76
2021/12/20 04:04:52;;;;;;;1043.37;116.73;;;1.20;99.90;;;;;;5091360;28;20467;-77
2021/12/20 04:07:20;;;;;;;778.10;132.17;;;1.20;99.90;;;;;;5074156;28;20469;-77
2021/12/20 04:09:48;;;;;;;370.13;35.47;;;1.20;99.90;;;;;;5074548;28;20967;-77
2021/12/20 04:12:16;;;;;;;335.37;32.63;;;1.10;99.90;;;;;;5074414;28;20441;-77
2021/12/20 04:14:44;;;;;;;1004.27;97.87;;;1.10;99.90;;;;;;5074246;28;20445;-77
2021/12/20 04:17:12;;;;;;;654.53;71.30;;;1.10;99.90;;;;;;5075232;28;21007;-76
2021/12/20 04:19:42;;;;;;;1380.53;138.70;;;1.10;99.90;;;;;;5074715;28;20442;-76
2021/12/20 04:22:10;;;;;;;726.77;117.83;;;1.00;99.90;;;;;;5073489;28;20474;-77
2021/12/20 04:24:38;;;;;;;496.47;37.43;;;1.00;99.90;;;;;;5074150;28;20457;-77
2021/12/20 04:27:06;;;;;;;306.70;31.07;;;1.00;99.90;;;;;;5073824;28;20465;-77
2021/12/20 04:29:34;;;;;;;959.23;151.07;;;1.00;99.90;;;;;;5073769;28;20485;-77
2021/12/20 04:32:03;;;;;;;1284.73;122.53;;;1.00;99.90;;;;;;5075059;28;20441;-76
2021/12/20 04:34:34;;;;;;;453.70;70.23;;;1.00;99.90;;;;;;5075097;28;20445;-76
2021/12/20 04:37:06;;;;;;;771.53;125.47;;;0.90;99.90;;;;;;5073686;28;20511;-77
2021/12/20 04:39:34;;;;;;;481.20;33.07;;;0.90;99.90;;;;;;5073752;28;20529;-76
2021/12/20 04:42:03;;;;;;;619.27;53.23;;;0.90;99.90;;;;;;5074677;28;20487;-76
2021/12/20 04:44:31;;;;;;;289.80;46.53;;;0.80;99.90;;;;;;5074846;28;20445;-76
2021/12/20 04:46:59;;;;;;;780.73;112.83;;;0.90;99.90;;;;;;5075901;28;20479;-78
2021/12/20 04:49:27;;;;;;;498.63;69.10;;;0.80;99.90;;;;;;5073909;28;20464;-76
2021/12/20 04:51:57;;;;;;;750.57;125.80;;;0.80;99.90;;;;;;5074612;28;20445;-78
2021/12/20 04:54:27;;;;;;;652.03;48.17;;;0.80;99.90;;;;;;5073687;28;20484;-78
2021/12/20 04:56:55;;;;;;;1018.17;121.77;;;0.70;99.90;;;;;;5073761;28;20469;-76
2021/12/20 04:59:23;;;;;;;904.40;121.27;;;0.70;99.90;;;;;;5073335;28;20441;-77
2021/12/20 05:01:51;;;;;;;916.30;90.10;;;0.70;99.90;;;;;;5074578;28;20537;-77
2021/12/20 05:04:19;;;;;;;951.40;153.67;;;0.70;99.90;;;;;;5074797;28;20856;-77
2021/12/20 05:06:49;;;;;;;543.43;64.53;;;0.70;99.90;;;;;;5097371;28;20541;-76
2021/12/20 05:09:18;;;;;;;409.90;41.40;;;0.60;99.90;;;;;;5082998;28;20444;-77
2021/12/20 05:11:50;;;;;;;132.30;23.43;;;0.60;99.90;;;;;;5091017;28;20817;-77
2021/12/20 05:14:18;;;;;;;384.30;38.97;;;0.60;99.90;;;;;;5073518;28;20458;-77
2021/12/20 05:16:47;;;;;;;599.00;52.90;;;0.60;99.90;;;;;;5085187;28;20495;-77
2021/12/20 05:19:15;;;;;;;1218.57;130.67;;;0.50;99.90;;;;;;5073189;28;20475;-77
2021/12/20 05:21:43;;;;;;;232.30;31.93;;;0.50;99.90;;;;;;5073225;28;20474;-77
2021/12/20 05:24:11;;;;;;;742.07;95.87;;;0.50;99.90;;;;;;5073233;28;20442;-77
2021/12/20 05:26:39;;;;;;;1171.90;116.53;;;0.50;99.90;;;;;;5073142;28;20441;-76
2021/12/20 05:29:09;;;;;;;1166.73;140.33;;;0.50;99.90;;;;;;5073054;28;20558;-76
2021/12/20 05:31:38;;;;;;;693.63;84.93;;;0.50;99.90;;;;;;5073179;28;20441;-77
2021/12/20 05:34:06;;;;;;;451.30;46.43;;;0.40;99.90;;;;;;5080274;28;20810;-76
2021/12/20 05:36:34;;;;;;;664.40;78.27;;;0.40;99.90;;;;;;5075022;28;20453;-78
2021/12/20 05:39:04;;;;;;;562.63;52.70;;;0.40;99.90;;;;;;5082563;28;20445;-77
2021/12/20 05:41:32;;;;;;;425.90;40.87;;;0.40;99.90;;;;;;5074746;28;21011;-77
2021/12/20 05:44:00;;;;;;;750.37;75.20;;;0.40;99.90;;;;;;5073525;28;21044;-76
2021/12/20 05:46:30;;;;;;;814.83;123.57;;;0.40;99.90;;;;;;5072783;28;20869;-77
2021/12/20 05:48:58;;;;;;;1079.07;126.60;;;0.30;99.90;;;;;;5074619;28;20495;-78
2021/12/20 05:51:27;;;;;;;925.27;123.80;;;0.30;99.90;;;;;;5072626;28;20468;-77
2021/12/20 05:53:55;;;;;;;1229.40;140.47;;;0.30;99.90;;;;;;5072629;28;20809;-76
2021/12/20 05:56:23;;;;;;;470.47;83.87;;;0.30;99.90;;;;;;5074046;28;20487;-76
2021/12/20 05:58:52;;;;;;;327.63;33.57;;;0.30;99.90;;;;;;5087433;28;20476;-77
2021/12/20 06:01:20;;;;;;;665.53;74.10;;;0.30;99.90;;;;;;5092477;28;20459;-77
2021/12/20 06:03:49;;;;;;;740.73;110.23;;;0.30;99.90;;;;;;5092795;28;20448;-77
2021/12/20 06:06:18;;;;;;;323.67;41.97;;;0.30;99.90;;;;;;5080393;28;20449;-77
2021/12/20 06:08:46;;;;;;;901.33;102.27;;;0.30;99.90;;;;;;5073456;28;21008;-77
2021/12/20 06:11:14;;;;;;;700.70;59.73;;;0.30;99.90;;;;;;5073708;28;20441;-78
2021/12/20 06:13:42;;;;;;;553.67;77.33;;;0.30;99.90;;;;;;5072437;28;21155;-77
2021/12/20 06:16:11;;;;;;;461.80;59.53;;;0.30;99.90;;;;;;5078893;28;20456;-77
2021/12/20 06:18:39;;;;;;;200.73;22.93;;;0.20;99.90;;;;;;5089682;28;20491;-77
2021/12/20 06:21:08;;;;;;;427.03;26.03;;;0.20;99.90;;;;;;5072446;28;20961;-77
2021/12/20 06:23:36;;;;;;;1120.63;132.47;;;0.20;99.90;;;;;;5073494;28;20469;-77
2021/12/20 06:26:05;;;;;;;379.37;43.00;;;0.20;99.90;;;;;;5072041;28;20443;-77
2021/12/20 06:28:33;;;;;;;385.17;39.33;;;0.20;99.90;;;;;;5071815;28;21002;-77
2021/12/20 06:31:01;;;;;;;409.90;49.90;;;0.20;99.90;;;;;;5071900;28;20451;-77
2021/12/20 06:33:29;;;;;;;403.10;72.43;;;0.10;99.90;;;;;;5072289;28;20541;-77
2021/12/20 06:35:57;;;;;;;483.80;38.10;;;0.10;99.90;;;;;;5071779;28;20453;-77
2021/12/20 06:38:27;;;;;;;848.87;135.43;;;0.10;99.90;;;;;;5072388;28;20615;-77
2021/12/20 06:40:55;;;;;;;567.07;63.90;;;0.10;99.90;;;;;;5072548;28;20543;-77
2021/12/20 06:43:24;;;;;;;235.93;28.00;;;0.10;99.90;;;;;;5071999;28;20472;-77
2021/12/20 06:45:52;;;;;;;552.83;51.17;;;0.10;99.90;;;;;;5076098;28;20980;-77
2021/12/20 06:48:20;;;;;;;739.30;82.73;;;0.00;99.90;;;;;;5080449;28;20829;-77
2021/12/20 06:50:48;;;;;;;871.73;83.87;;;0.00;99.90;;;;;;5097379;28;20988;-77
2021/12/20 06:53:16;;;;;;;483.47;58.00;;;0.00;99.90;;;;;;5082861;28;20812;-77
2021/12/20 06:55:46;;;;;;;347.70;35.37;;;0.00;99.90;;;;;;5075608;28;20484;-77
2021/12/20 06:58:14;;;;;;;396.50;59.20;;;0.00;99.90;;;;;;5081395;28;20546;-77
2021/12/20 07:00:43;;;;;;;702.83;92.17;;;0.00;99.90;;;;;;5075646;28;20448;-76
2021/12/20 07:03:11;;;;;;;531.90;64.27;;;0.00;99.90;;;;;;5075345;28;20542;-76
2021/12/20 07:05:39;;;;;;;827.90;95.90;;;0.00;99.90;;;;;;5075333;28;20830;-76
2021/12/20 07:08:08;;;;;;;222.40;25.83;;;0.00;99.90;;;;;;5076877;28;20469;-76
2021/12/20 07:10:36;;;;;;;829.77;137.93;;;0.00;99.90;;;;;;5075737;28;20449;-76
2021/12/20 07:13:09;;;;;;;539.90;53.83;;;-0.10;99.90;;;;;;5077320;28;20425;-77
2021/12/20 07:15:38;;;;;;;891.27;134.10;;;-0.10;99.90;;;;;;5077320;28;20543;-77
2021/12/20 07:18:06;;;;;;;401.50;55.07;;;-0.10;99.90;;;;;;5075737;28;20508;-77
2021/12/20 07:20:35;;;;;;;270.33;40.53;;;-0.10;99.90;;;;;;5076190;28;20781;-77
2021/12/20 07:23:04;;;;;;;833.20;107.40;;;-0.10;99.90;;;;;;5075561;28;20476;-77
2021/12/20 07:25:33;;;;;;;778.97;105.03;;;-0.10;99.90;;;;;;5076843;28;20860;-75
2021/12/20 07:28:01;;;;;;;625.33;48.30;;;-0.20;99.90;;;;;;5075222;28;20973;-75
2021/12/20 07:30:31;;;;;;;477.73;52.27;;;-0.20;99.90;;;;;;5093276;28;20547;-77
2021/12/20 07:32:59;;;;;;;501.03;59.33;;;-0.20;99.90;;;;;;5088852;28;20446;-78
2021/12/20 07:35:28;;;;;;;506.70;61.40;;;-0.20;99.90;;;;;;5075377;28;20813;-77
2021/12/20 07:37:58;;;;;;;395.70;53.13;;;-0.20;99.90;;;;;;5075521;28;20469;-77
2021/12/20 07:40:27;;;;;;;297.33;32.87;;;-0.20;99.90;;;;;;5075790;28;20999;-76
2021/12/20 07:42:55;;;;;;;291.53;42.03;;;-0.20;99.90;;;;;;5074962;28;20484;-76
2021/12/20 07:45:24;;;;;;;1368.77;171.50;;;-0.20;99.90;;;;;;5074916;28;20502;-76
2021/12/20 07:47:53;;;;;;;351.00;31.53;;;-0.10;99.90;;;;;;5091227;28;20559;-76
2021/12/20 07:50:23;;;;;;;529.17;38.50;;;-0.20;99.90;;;;;;5095282;28;20509;-77
2021/12/20 07:52:51;;;;;;;665.70;78.60;;;-0.20;99.90;;;;;;5089190;28;21061;-77
2021/12/20 07:55:19;;;;;;;745.37;101.50;;;-0.20;99.90;;;;;;5084881;28;20797;-77
2021/12/20 07:57:47;;;;;;;955.33;126.97;;;-0.20;99.90;;;;;;5075733;28;20470;-77
2021/12/20 08:00:16;;;;;;;424.87;34.30;;;-0.20;99.90;;;;;;5074710;28;20451;-77
2021/12/20 08:02:45;;;;;;;389.47;47.13;;;-0.20;99.90;;;;;;5074984;28;20495;-77
2021/12/20 08:05:15;;;;;;;597.00;50.57;;;-0.20;99.90;;;;;;5078113;28;20437;-77
2021/12/20 08:07:45;;;;;;;999.77;129.13;;;-0.20;99.90;;;;;;5082466;28;20515;-77
2021/12/20 08:10:13;;;;;;;713.30;90.13;;;-0.20;99.90;;;;;;5078135;28;20467;-78
2021/12/20 08:12:42;;;;;;;544.83;76.57;;;-0.20;99.90;;;;;;5082171;28;20445;-78
2021/12/20 08:15:11;;;;;;;330.07;59.67;;;-0.20;99.90;;;;;;5077504;28;20544;-77
2021/12/20 08:17:40;;;;;;;955.93;129.37;;;-0.20;99.90;;;;;;5075134;28;20920;-77
2021/12/20 08:20:10;;;;;;;932.37;124.17;;;-0.20;99.90;;;;;;5074059;28;20445;-77
2021/12/20 08:22:40;;;;;;;365.70;49.73;;;-0.20;99.90;;;;;;5073974;28;20867;-77
2021/12/20 08:25:10;;;;;;;1053.93;123.73;;;-0.20;99.90;;;;;;5074421;28;20520;-77
2021/12/20 08:27:38;;;;;;;438.57;78.30;;;-0.20;99.90;;;;;;5073054;28;20501;-77
2021/12/20 08:30:08;;;;;;;801.73;106.97;;;-0.20;99.90;;;;;;5075298;28;20500;-77
2021/12/20 08:32:37;;;;;;;776.43;82.90;;;-0.10;99.90;;;;;;5073867;28;20457;-77
2021/12/20 08:35:07;;;;;;;667.53;56.63;;;-0.20;99.90;;;;;;5086789;28;20466;-76
2021/12/20 08:37:35;;;;;;;814.07;88.37;;;-0.10;99.90;;;;;;5093999;28;20472;-76
2021/12/20 08:40:07;;;;;;;606.87;92.70;;;-0.10;99.90;;;;;;5093998;28;20449;-77
2021/12/20 08:42:35;;;;;;;255.90;48.40;;;-0.10;99.90;;;;;;5094122;28;20441;-77
2021/12/20 08:45:04;;;;;;;683.73;81.93;;;-0.10;99.90;;;;;;5095651;28;20433;-77
2021/12/20 08:47:33;;;;;;;937.47;132.63;;;-0.10;99.90;;;;;;5095410;28;20528;-77
2021/12/20 08:50:01;;;;;;;692.73;104.33;;;-0.10;99.90;;;;;;5081403;28;20502;-76
2021/12/20 08:52:30;;;;;;;871.80;92.53;;;0.00;99.90;;;;;;5073423;28;20516;-77
2021/12/20 08:54:58;;;;;;;517.47;68.03;;;0.00;99.90;;;;;;5073723;28;20445;-76
2021/12/20 08:57:27;;;;;;;403.13;74.97;;;0.00;99.90;;;;;;5073376;28;20564;-77
2021/12/20 08:59:55;;;;;;;765.30;110.60;;;0.10;99.90;;;;;;5075070;28;20432;-76
2021/12/20 09:02:24;;;;;;;794.37;123.10;;;0.10;99.90;;;;;;5074560;28;20484;-77
2021/12/20 09:04:52;;;;;;;504.17;81.40;;;0.10;99.90;;;;;;5075258;28;20961;-77
2021/12/20 09:07:22;;;;;;;1311.00;206.73;;;0.20;99.90;;;;;;5072984;28;20461;-77
2021/12/20 09:09:52;;;;;;;1644.70;185.50;;;0.20;99.90;;;;;;5082400;28;20455;-77
2021/12/20 09:12:21;;;;;;;1314.10;195.50;;;0.20;99.90;;;;;;5093418;28;20522;-77
2021/12/20 09:14:51;;;;;;;1412.90;218.37;;;0.30;99.90;;;;;;5094776;28;20440;-77
2021/12/20 09:17:19;;;;;;;407.27;60.70;;;0.30;99.90;;;;;;5093305;28;20479;-77
2021/12/20 09:19:47;;;;;;;457.63;84.80;;;0.30;99.90;;;;;;5076755;28;20441;-77
2021/12/20 09:22:16;;;;;;;1086.77;169.47;;;0.30;99.90;;;;;;5075255;28;20528;-76
2021/12/20 09:24:44;;;;;;;917.87;152.47;;;0.40;99.90;;;;;;5073264;28;20483;-77
2021/12/20 09:27:13;;;;;;;802.63;126.10;;;0.40;99.90;;;;;;5082934;28;20456;-77
2021/12/20 09:29:41;;;;;;;595.87;106.97;;;0.40;99.90;;;;;;5094640;28;20467;-77
2021/12/20 09:32:11;;;;;;;1394.93;249.57;;;0.50;99.90;;;;;;5092729;28;20531;-77
2021/12/20 09:34:43;;;;;;;1271.93;203.27;;;0.50;99.90;;;;;;5092944;28;20449;-77
2021/12/20 09:37:11;;;;;;;1220.93;156.30;;;0.50;99.90;;;;;;5073056;28;20835;-77
2021/12/20 09:39:41;;;;;;;1041.57;201.73;;;0.50;99.90;;;;;;5072503;28;20499;-76
2021/12/20 09:42:12;;;;;;;761.30;94.10;;;0.60;99.90;;;;;;5074068;28;20429;-77
2021/12/20 09:44:44;;;;;;;1999.90;410.93;;;0.60;99.90;;;;;;5072381;28;20973;-77
2021/12/20 09:47:14;;;;;;;1999.90;454.37;;;0.70;99.90;;;;;;5088132;28;20479;-77
2021/12/20 09:49:43;;;;;;;1999.90;421.07;;;0.70;99.90;;;;;;5085279;28;20456;-77
2021/12/20 09:52:11;;;;;;;1999.90;436.73;;;0.70;99.90;;;;;;5072987;28;20457;-77
2021/12/20 09:54:39;;;;;;;1999.90;409.00;;;0.80;99.90;;;;;;5073022;28;20441;-77
2021/12/20 09:57:11;;;;;;;1999.90;479.83;;;0.90;99.90;;;;;;5073184;28;20464;-77
2021/12/20 09:59:41;;;;;;;1999.90;673.10;;;0.90;99.90;;;;;;5072460;28;20464;-77
2021/12/20 10:02:10;;;;;;;1999.90;467.10;;;1.00;99.90;;;;;;5071968;28;20449;-77
2021/12/20 10:04:39;;;;;;;1999.90;506.70;;;1.10;99.90;;;;;;5071966;28;20512;-77
2021/12/20 10:07:08;;;;;;;1999.90;570.83;;;1.10;99.90;;;;;;5072080;28;20462;-77
2021/12/20 10:09:39;;;;;;;1999.90;504.93;;;1.20;99.90;;;;;;5073469;28;21025;-77
2021/12/20 10:12:15;;;;;;;1999.90;461.97;;;1.30;99.90;;;;;;5072126;28;20473;-77
2021/12/20 10:14:55;;;;;;;1999.90;386.50;;;1.40;99.90;;;;;;5073603;28;20436;-76
2021/12/20 10:17:25;;;;;;;1999.90;473.17;;;1.50;99.90;;;;;;5072594;28;20487;-76
2021/12/20 10:19:55;;;;;;;1999.90;438.03;;;1.60;99.90;;;;;;5071470;28;20938;-77
2021/12/20 10:22:28;;;;;;;1592.43;213.00;;;1.70;99.90;;;;;;5084099;28;20452;-76
2021/12/20 10:24:58;;;;;;;1999.90;412.40;;;1.80;99.90;;;;;;5093757;28;20487;-76
2021/12/20 10:27:32;;;;;;;1999.90;802.43;;;1.80;99.90;;;;;;5092480;28;20512;-77
2021/12/20 10:30:01;;;;;;;542.57;116.53;;;1.90;99.90;;;;;;5092230;28;20448;-76
2021/12/20 10:32:40;;;;;;;1744.13;256.77;;;2.00;99.90;;;;;;5092159;28;20453;-76
2021/12/20 10:35:39;;;;;;;1999.90;770.93;;;2.10;99.90;;;;;;5077209;28;20829;-77
2021/12/20 10:38:22;;;;;;;1999.90;311.00;;;2.20;99.90;;;;;;5073954;28;20461;-77
2021/12/20 10:40:53;;;;;;;1999.90;761.87;;;2.30;99.90;;;;;;5072325;28;20443;-76
2021/12/20 10:43:24;;;;;;;700.23;125.90;;;2.40;99.90;;;;;;5072775;28;20446;-77
2021/12/20 10:45:53;;;;;;;671.07;136.57;;;2.40;99.90;;;;;;5073470;28;20962;-76
2021/12/20 10:48:43;;;;;;;529.50;133.27;;;2.50;99.90;;;;;;5078129;28;20502;-76
2021/12/20 10:51:22;;;;;;;1999.90;999.90;;;2.60;99.90;;;;;;5092794;28;20454;-76
2021/12/20 10:53:57;;;;;;;1999.90;999.90;;;2.70;99.90;;;;;;5089810;28;20482;-76
2021/12/20 10:56:26;;;;;;;684.23;284.83;;;2.70;99.90;;;;;;5073025;28;20455;-76
2021/12/20 10:58:55;;;;;;;781.83;304.97;;;2.80;99.90;;;;;;5071974;28;20503;-76
2021/12/20 11:04:12;;;;;;;1390.57;370.77;;;3.00;99.90;;;;;;5070770;28;20520;-76
2021/12/20 11:09:31;;;;;;;1346.53;368.13;;;3.10;99.90;;;;;;5072298;28;20455;-76
2021/12/20 11:12:02;;;;;;;1999.90;557.57;;;3.20;99.90;;;;;;5073631;28;20424;-76
2021/12/20 11:14:32;;;;;;;1999.90;565.87;;;3.30;99.90;;;;;;5071904;28;20450;-77
2021/12/20 11:17:02;;;;;;;1999.90;773.57;;;3.30;99.90;;;;;;5074590;28;20473;-77
2021/12/20 11:19:32;;;;;;;1999.90;647.43;;;3.40;99.90;;;;;;5073134;28;20883;-77
2021/12/20 11:22:08;;;;;;;1999.90;762.43;;;3.50;99.90;;;;;;5073047;28;20929;-77
2021/12/20 11:24:40;;;;;;;1999.90;785.57;;;3.50;99.90;;;;;;5085464;28;20828;-77
2021/12/20 11:27:14;;;;;;;1999.90;434.03;;;3.60;99.90;;;;;;5093174;28;20468;-76
2021/12/20 11:29:45;;;;;;;1999.90;467.87;;;3.60;99.90;;;;;;5088114;28;20488;-77
2021/12/20 11:32:14;;;;;;;1999.90;999.90;;;3.70;99.90;;;;;;5076146;28;20522;-76
2021/12/20 11:34:42;;;;;;;1999.90;672.97;;;3.70;99.90;;;;;;5076261;28;20436;-77
2021/12/20 11:37:14;;;;;;;1999.90;999.90;;;3.70;99.90;;;;;;5076530;28;20515;-77
2021/12/20 11:39:43;;;;;;;1999.90;999.90;;;3.80;99.90;;;;;;5079294;28;20483;-77
2021/12/20 11:42:14;;;;;;;1999.90;999.90;;;3.80;99.90;;;;;;5077055;28;20433;-77
2021/12/20 11:44:45;;;;;;;1999.90;546.27;;;3.90;99.90;;;;;;5084864;28;20542;-77
2021/12/20 11:47:24;;;;;;;1999.90;999.90;;;3.90;99.90;;;;;;5091787;28;20503;-77
2021/12/20 11:49:58;;;;;;;1999.90;999.90;;;4.00;99.90;;;;;;5080805;28;20455;-76
2021/12/20 11:52:32;;;;;;;1999.90;756.73;;;4.00;99.90;;;;;;5080041;28;20446;-76
2021/12/20 11:55:01;;;;;;;1999.90;999.90;;;4.00;99.90;;;;;;5095122;28;20433;-77
2021/12/20 11:57:44;;;;;;;1663.57;488.00;;;4.00;99.90;;;;;;5094847;28;20479;-77
2021/12/20 12:00:25;;;;;;;1999.90;999.90;;;4.10;99.90;;;;;;5093241;28;20446;-77
2021/12/20 12:02:56;;;;;;;1999.90;999.90;;;4.10;99.90;;;;;;5078285;28;20501;-76
2021/12/20 12:05:35;;;;;;;1999.90;999.90;;;4.10;99.90;;;;;;5091309;28;20567;-76
2021/12/20 12:08:25;;;;;;;1999.90;999.90;;;4.10;99.90;;;;;;5074852;28;20468;-77
2021/12/20 12:10:55;;;;;;;1999.90;999.90;;;4.20;99.90;;;;;;5076205;28;20945;-77
2021/12/20 12:13:26;;;;;;;1999.90;999.90;;;4.20;99.90;;;;;;5074302;28;20453;-77
2021/12/20 12:16:01;;;;;;;1999.90;999.90;;;4.20;99.90;;;;;;5075981;28;20479;-76
2021/12/20 12:18:49;;;;;;;1898.87;527.40;;;4.20;99.90;;;;;;5075446;28;20456;-77
2021/12/20 12:21:40;;;;;;;1999.90;999.90;;;4.20;99.90;;;;;;5076047;28;20525;-77
2021/12/20 12:24:47;;;;;;;1999.90;999.90;;;4.30;99.90;;;;;;5074895;28;20455;-77
2021/12/20 12:27:23;;;;;;;1999.90;999.90;;;4.30;99.90;;;;;;5075564;28;21012;-77
2021/12/20 12:30:33;;;;;;;1999.90;999.90;;;4.30;99.90;;;;;;5074142;28;20866;-77
2021/12/20 12:33:30;;;;;;;1999.90;999.90;;;4.30;99.90;;;;;;5075790;28;20545;-76
2021/12/20 12:36:21;;;;;;;1999.90;775.80;;;4.40;99.90;;;;;;5029128;28;21014;-76
2021/12/20 12:38:52;;;;;;;1999.90;999.90;;;4.30;99.90;;;;;;5066763;28;20526;-76
2021/12/20 12:41:25;;;;;;;1999.90;999.90;;;4.40;99.90;;;;;;5074055;28;20441;-77
2021/12/20 12:44:09;;;;;;;1999.90;999.90;;;4.40;99.90;;;;;;5073571;28;20547;-76
2021/12/20 12:46:46;;;;;;;1999.90;999.90;;;4.50;99.90;;;;;;5075292;28;20504;-76